sensor_id;sensor_type;location;lat;lon;timestamp;P1;durP1;ratioP1;P2;durP2;ratioP2
25946;SDS011;13745;51.470;9.894;2022-08-03T00:00:37;4.28;;;2.33;;
25946;SDS011;13745;51.470;9.894;2022-08-03T00:03:24;2.20;;;2.03;;
25946;SDS011;13745;51.470;9.894;2022-08-03T00:06:10;3.50;;;2.10;;
25946;SDS011;13745;51.470;9.894;2022-08-03T00:08:56;3.33;;;2.33;;
25946;SDS011;13745;51.470;9.894;2022-08-03T00:11:42;4.20;;;2.40;;
25946;SDS011;13745;51.470;9.894;2022-08-03T00:14:28;5.38;;;2.60;;
25946;SDS011;13745;51.470;9.894;2022-08-03T00:17:13;2.50;;;2.30;;
25946;SDS011;13745;51.470;9.894;2022-08-03T00:20:01;4.32;;;2.92;;
25946;SDS011;13745;51.470;9.894;2022-08-03T00:22:47;2.53;;;2.30;;
25946;SDS011;13745;51.470;9.894;2022-08-03T00:25:34;2.25;;;2.05;;
25946;SDS011;13745;51.470;9.894;2022-08-03T00:28:20;3.00;;;2.40;;
25946;SDS011;13745;51.470;9.894;2022-08-03T00:31:05;2.50;;;2.30;;
25946;SDS011;13745;51.470;9.894;2022-08-03T00:33:52;2.92;;;2.72;;
25946;SDS011;13745;51.470;9.894;2022-08-03T00:36:39;4.40;;;2.60;;
25946;SDS011;13745;51.470;9.894;2022-08-03T00:39:25;3.55;;;2.45;;
25946;SDS011;13745;51.470;9.894;2022-08-03T00:42:11;2.75;;;2.55;;
25946;SDS011;13745;51.470;9.894;2022-08-03T00:44:57;4.93;;;2.60;;
25946;SDS011;13745;51.470;9.894;2022-08-03T00:47:43;3.63;;;2.58;;
25946;SDS011;13745;51.470;9.894;2022-08-03T00:50:30;2.70;;;2.40;;
25946;SDS011;13745;51.470;9.894;2022-08-03T00:53:19;2.30;;;2.10;;
25946;SDS011;13745;51.470;9.894;2022-08-03T00:56:05;5.25;;;2.25;;
25946;SDS011;13745;51.470;9.894;2022-08-03T00:58:51;4.95;;;2.58;;
25946;SDS011;13745;51.470;9.894;2022-08-03T01:01:41;3.30;;;2.33;;
25946;SDS011;13745;51.470;9.894;2022-08-03T01:04:27;2.67;;;2.47;;
25946;SDS011;13745;51.470;9.894;2022-08-03T01:07:14;5.88;;;2.42;;
25946;SDS011;13745;51.470;9.894;2022-08-03T01:10:09;7.97;;;2.73;;
25946;SDS011;13745;51.470;9.894;2022-08-03T01:13:02;4.72;;;2.80;;
25946;SDS011;13745;51.470;9.894;2022-08-03T01:15:55;7.53;;;3.22;;
25946;SDS011;13745;51.470;9.894;2022-08-03T01:18:48;4.55;;;3.03;;
25946;SDS011;13745;51.470;9.894;2022-08-03T01:21:43;3.08;;;2.70;;
25946;SDS011;13745;51.470;9.894;2022-08-03T01:24:43;4.20;;;3.13;;
25946;SDS011;13745;51.470;9.894;2022-08-03T01:27:42;4.88;;;3.38;;
25946;SDS011;13745;51.470;9.894;2022-08-03T01:30:41;4.47;;;3.85;;
25946;SDS011;13745;51.470;9.894;2022-08-03T01:33:32;5.45;;;4.22;;
25946;SDS011;13745;51.470;9.894;2022-08-03T01:36:21;4.78;;;3.05;;
25946;SDS011;13745;51.470;9.894;2022-08-03T01:39:10;7.43;;;2.90;;
25946;SDS011;13745;51.470;9.894;2022-08-03T01:41:57;4.40;;;2.95;;
25946;SDS011;13745;51.470;9.894;2022-08-03T01:44:49;2.60;;;2.40;;
25946;SDS011;13745;51.470;9.894;2022-08-03T01:47:38;2.83;;;2.63;;
25946;SDS011;13745;51.470;9.894;2022-08-03T01:50:26;2.95;;;2.67;;
25946;SDS011;13745;51.470;9.894;2022-08-03T01:53:14;7.43;;;3.15;;
25946;SDS011;13745;51.470;9.894;2022-08-03T01:56:01;6.82;;;2.85;;
25946;SDS011;13745;51.470;9.894;2022-08-03T01:58:50;5.63;;;2.60;;
25946;SDS011;13745;51.470;9.894;2022-08-03T02:01:38;5.85;;;2.85;;
25946;SDS011;13745;51.470;9.894;2022-08-03T02:04:26;4.90;;;2.90;;
25946;SDS011;13745;51.470;9.894;2022-08-03T02:07:13;3.78;;;2.80;;
25946;SDS011;13745;51.470;9.894;2022-08-03T02:10:00;6.72;;;3.20;;
25946;SDS011;13745;51.470;9.894;2022-08-03T02:12:47;3.25;;;2.90;;
25946;SDS011;13745;51.470;9.894;2022-08-03T02:15:34;4.00;;;2.95;;
25946;SDS011;13745;51.470;9.894;2022-08-03T02:18:21;3.42;;;3.13;;
25946;SDS011;13745;51.470;9.894;2022-08-03T02:21:11;3.70;;;3.35;;
25946;SDS011;13745;51.470;9.894;2022-08-03T02:23:58;4.60;;;3.50;;
25946;SDS011;13745;51.470;9.894;2022-08-03T02:26:44;6.07;;;3.92;;
25946;SDS011;13745;51.470;9.894;2022-08-03T02:29:31;5.07;;;4.03;;
25946;SDS011;13745;51.470;9.894;2022-08-03T02:32:19;5.50;;;2.97;;
25946;SDS011;13745;51.470;9.894;2022-08-03T02:35:14;2.83;;;2.63;;
25946;SDS011;13745;51.470;9.894;2022-08-03T02:38:04;3.53;;;2.53;;
25946;SDS011;13745;51.470;9.894;2022-08-03T02:40:54;3.78;;;3.08;;
25946;SDS011;13745;51.470;9.894;2022-08-03T02:43:41;7.47;;;3.50;;
25946;SDS011;13745;51.470;9.894;2022-08-03T02:46:30;6.22;;;3.58;;
25946;SDS011;13745;51.470;9.894;2022-08-03T02:49:21;6.85;;;3.50;;
25946;SDS011;13745;51.470;9.894;2022-08-03T02:52:09;5.50;;;3.97;;
25946;SDS011;13745;51.470;9.894;2022-08-03T02:54:59;4.55;;;3.53;;
25946;SDS011;13745;51.470;9.894;2022-08-03T02:57:46;6.28;;;3.38;;
25946;SDS011;13745;51.470;9.894;2022-08-03T03:00:33;6.30;;;3.08;;
25946;SDS011;13745;51.470;9.894;2022-08-03T03:03:20;8.55;;;2.83;;
25946;SDS011;13745;51.470;9.894;2022-08-03T03:06:06;3.50;;;3.20;;
25946;SDS011;13745;51.470;9.894;2022-08-03T03:08:55;5.88;;;2.92;;
25946;SDS011;13745;51.470;9.894;2022-08-03T03:11:43;5.82;;;2.75;;
25946;SDS011;13745;51.470;9.894;2022-08-03T03:14:28;3.30;;;2.97;;
25946;SDS011;13745;51.470;9.894;2022-08-03T03:17:16;4.28;;;2.67;;
25946;SDS011;13745;51.470;9.894;2022-08-03T03:20:04;3.17;;;2.60;;
25946;SDS011;13745;51.470;9.894;2022-08-03T03:22:51;3.55;;;2.78;;
25946;SDS011;13745;51.470;9.894;2022-08-03T03:25:39;4.75;;;2.78;;
25946;SDS011;13745;51.470;9.894;2022-08-03T03:28:29;7.32;;;3.25;;
25946;SDS011;13745;51.470;9.894;2022-08-03T03:31:16;3.83;;;3.03;;
25946;SDS011;13745;51.470;9.894;2022-08-03T03:34:02;4.88;;;2.72;;
25946;SDS011;13745;51.470;9.894;2022-08-03T03:36:48;3.25;;;2.40;;
25946;SDS011;13745;51.470;9.894;2022-08-03T03:39:34;9.05;;;2.90;;
25946;SDS011;13745;51.470;9.894;2022-08-03T03:42:21;3.50;;;3.10;;
25946;SDS011;13745;51.470;9.894;2022-08-03T03:45:09;3.03;;;2.33;;
25946;SDS011;13745;51.470;9.894;2022-08-03T03:47:58;3.80;;;2.65;;
25946;SDS011;13745;51.470;9.894;2022-08-03T03:50:44;2.83;;;2.63;;
25946;SDS011;13745;51.470;9.894;2022-08-03T03:53:30;3.63;;;2.90;;
25946;SDS011;13745;51.470;9.894;2022-08-03T03:56:16;7.30;;;2.85;;
25946;SDS011;13745;51.470;9.894;2022-08-03T03:59:02;3.50;;;3.20;;
25946;SDS011;13745;51.470;9.894;2022-08-03T04:01:49;5.90;;;3.10;;
25946;SDS011;13745;51.470;9.894;2022-08-03T04:04:35;3.53;;;3.22;;
25946;SDS011;13745;51.470;9.894;2022-08-03T04:07:41;3.58;;;2.55;;
25946;SDS011;13745;51.470;9.894;2022-08-03T04:10:54;3.20;;;2.67;;
25946;SDS011;13745;51.470;9.894;2022-08-03T04:13:46;11.85;;;3.00;;
25946;SDS011;13745;51.470;9.894;2022-08-03T04:16:35;10.07;;;3.28;;
25946;SDS011;13745;51.470;9.894;2022-08-03T04:19:27;4.50;;;2.97;;
25946;SDS011;13745;51.470;9.894;2022-08-03T04:22:17;3.85;;;3.45;;
25946;SDS011;13745;51.470;9.894;2022-08-03T04:25:06;3.38;;;3.08;;
25946;SDS011;13745;51.470;9.894;2022-08-03T04:27:54;3.20;;;2.35;;
25946;SDS011;13745;51.470;9.894;2022-08-03T04:30:42;3.40;;;3.10;;
25946;SDS011;13745;51.470;9.894;2022-08-03T04:33:32;5.25;;;2.33;;
25946;SDS011;13745;51.470;9.894;2022-08-03T04:36:22;3.53;;;2.90;;
25946;SDS011;13745;51.470;9.894;2022-08-03T04:39:12;4.22;;;3.30;;
25946;SDS011;13745;51.470;9.894;2022-08-03T04:42:01;3.10;;;2.80;;
25946;SDS011;13745;51.470;9.894;2022-08-03T04:44:49;3.58;;;2.58;;
25946;SDS011;13745;51.470;9.894;2022-08-03T04:47:37;3.22;;;2.90;;
25946;SDS011;13745;51.470;9.894;2022-08-03T04:50:23;3.20;;;2.90;;
25946;SDS011;13745;51.470;9.894;2022-08-03T04:53:24;13.23;;;3.55;;
25946;SDS011;13745;51.470;9.894;2022-08-03T04:56:10;3.95;;;3.63;;
25946;SDS011;13745;51.470;9.894;2022-08-03T04:58:56;4.75;;;3.67;;
25946;SDS011;13745;51.470;9.894;2022-08-03T05:01:42;4.32;;;3.90;;
25946;SDS011;13745;51.470;9.894;2022-08-03T05:04:28;5.55;;;3.58;;
25946;SDS011;13745;51.470;9.894;2022-08-03T05:07:14;5.82;;;3.60;;
25946;SDS011;13745;51.470;9.894;2022-08-03T05:10:02;7.10;;;3.47;;
25946;SDS011;13745;51.470;9.894;2022-08-03T05:12:51;6.78;;;3.92;;
25946;SDS011;13745;51.470;9.894;2022-08-03T05:15:37;6.78;;;3.53;;
25946;SDS011;13745;51.470;9.894;2022-08-03T05:18:23;8.05;;;3.75;;
25946;SDS011;13745;51.470;9.894;2022-08-03T05:21:09;5.68;;;3.78;;
25946;SDS011;13745;51.470;9.894;2022-08-03T05:23:57;9.40;;;3.75;;
25946;SDS011;13745;51.470;9.894;2022-08-03T05:26:44;4.15;;;3.75;;
25946;SDS011;13745;51.470;9.894;2022-08-03T05:29:30;8.90;;;4.10;;
25946;SDS011;13745;51.470;9.894;2022-08-03T05:32:16;5.30;;;3.83;;
25946;SDS011;13745;51.470;9.894;2022-08-03T05:35:02;8.00;;;4.22;;
25946;SDS011;13745;51.470;9.894;2022-08-03T05:37:48;5.88;;;4.22;;
25946;SDS011;13745;51.470;9.894;2022-08-03T05:40:34;5.78;;;3.67;;
25946;SDS011;13745;51.470;9.894;2022-08-03T05:43:22;5.55;;;3.70;;
25946;SDS011;13745;51.470;9.894;2022-08-03T05:46:08;5.40;;;3.85;;
25946;SDS011;13745;51.470;9.894;2022-08-03T05:48:54;4.05;;;3.42;;
25946;SDS011;13745;51.470;9.894;2022-08-03T05:51:39;7.65;;;3.78;;
25946;SDS011;13745;51.470;9.894;2022-08-03T05:54:25;5.22;;;3.42;;
25946;SDS011;13745;51.470;9.894;2022-08-03T05:57:11;6.30;;;3.40;;
25946;SDS011;13745;51.470;9.894;2022-08-03T05:59:58;7.22;;;3.55;;
25946;SDS011;13745;51.470;9.894;2022-08-03T06:02:44;8.00;;;3.92;;
25946;SDS011;13745;51.470;9.894;2022-08-03T06:05:30;5.50;;;3.10;;
25946;SDS011;13745;51.470;9.894;2022-08-03T06:08:19;3.60;;;3.20;;
25946;SDS011;13745;51.470;9.894;2022-08-03T06:11:05;10.88;;;3.20;;
25946;SDS011;13745;51.470;9.894;2022-08-03T06:13:52;6.93;;;3.35;;
25946;SDS011;13745;51.470;9.894;2022-08-03T06:16:39;3.95;;;3.15;;
25946;SDS011;13745;51.470;9.894;2022-08-03T06:19:25;3.15;;;2.53;;
25946;SDS011;13745;51.470;9.894;2022-08-03T06:22:11;6.40;;;3.13;;
25946;SDS011;13745;51.470;9.894;2022-08-03T06:24:57;5.68;;;3.00;;
25946;SDS011;13745;51.470;9.894;2022-08-03T06:27:42;6.00;;;2.85;;
25946;SDS011;13745;51.470;9.894;2022-08-03T06:30:28;2.15;;;1.98;;
25946;SDS011;13745;51.470;9.894;2022-08-03T06:33:16;2.45;;;2.20;;
25946;SDS011;13745;51.470;9.894;2022-08-03T06:36:02;3.00;;;2.00;;
25946;SDS011;13745;51.470;9.894;2022-08-03T06:38:48;2.47;;;1.98;;
25946;SDS011;13745;51.470;9.894;2022-08-03T06:41:34;2.58;;;2.00;;
25946;SDS011;13745;51.470;9.894;2022-08-03T06:44:21;2.15;;;1.75;;
25946;SDS011;13745;51.470;9.894;2022-08-03T06:47:07;3.70;;;1.98;;
25946;SDS011;13745;51.470;9.894;2022-08-03T06:49:55;3.42;;;1.80;;
25946;SDS011;13745;51.470;9.894;2022-08-03T06:52:41;3.67;;;1.85;;
25946;SDS011;13745;51.470;9.894;2022-08-03T06:55:27;2.33;;;1.70;;
25946;SDS011;13745;51.470;9.894;2022-08-03T06:58:12;2.35;;;1.70;;
25946;SDS011;13745;51.470;9.894;2022-08-03T07:00:58;3.40;;;1.83;;
25946;SDS011;13745;51.470;9.894;2022-08-03T07:03:45;2.75;;;2.17;;
25946;SDS011;13745;51.470;9.894;2022-08-03T07:06:32;3.60;;;1.75;;
25946;SDS011;13745;51.470;9.894;2022-08-03T07:09:17;1.70;;;1.60;;
25946;SDS011;13745;51.470;9.894;2022-08-03T07:12:04;7.50;;;1.92;;
25946;SDS011;13745;51.470;9.894;2022-08-03T07:14:50;1.80;;;1.70;;
25946;SDS011;13745;51.470;9.894;2022-08-03T07:17:36;2.85;;;1.77;;
25946;SDS011;13745;51.470;9.894;2022-08-03T07:20:22;1.90;;;1.80;;
25946;SDS011;13745;51.470;9.894;2022-08-03T07:23:09;3.45;;;1.65;;
25946;SDS011;13745;51.470;9.894;2022-08-03T07:25:55;2.58;;;1.25;;
25946;SDS011;13745;51.470;9.894;2022-08-03T07:28:41;3.75;;;1.45;;
25946;SDS011;13745;51.470;9.894;2022-08-03T07:31:27;1.80;;;1.60;;
25946;SDS011;13745;51.470;9.894;2022-08-03T07:34:13;2.88;;;1.50;;
25946;SDS011;13745;51.470;9.894;2022-08-03T07:36:59;1.85;;;1.60;;
25946;SDS011;13745;51.470;9.894;2022-08-03T07:39:46;1.45;;;1.33;;
25946;SDS011;13745;51.470;9.894;2022-08-03T07:42:32;1.60;;;1.50;;
25946;SDS011;13745;51.470;9.894;2022-08-03T07:45:18;2.92;;;1.50;;
25946;SDS011;13745;51.470;9.894;2022-08-03T07:48:04;5.40;;;1.55;;
25946;SDS011;13745;51.470;9.894;2022-08-03T07:50:50;3.40;;;1.20;;
25946;SDS011;13745;51.470;9.894;2022-08-03T07:53:36;2.75;;;1.50;;
25946;SDS011;13745;51.470;9.894;2022-08-03T07:56:23;2.63;;;2.28;;
25946;SDS011;13745;51.470;9.894;2022-08-03T07:59:09;2.67;;;1.60;;
25946;SDS011;13745;51.470;9.894;2022-08-03T08:01:55;1.58;;;1.25;;
25946;SDS011;13745;51.470;9.894;2022-08-03T08:04:41;2.30;;;1.40;;
25946;SDS011;13745;51.470;9.894;2022-08-03T08:07:27;3.65;;;1.50;;
25946;SDS011;13745;51.470;9.894;2022-08-03T08:10:13;1.35;;;1.20;;
25946;SDS011;13745;51.470;9.894;2022-08-03T08:13:00;4.93;;;1.40;;
25946;SDS011;13745;51.470;9.894;2022-08-03T08:15:46;2.10;;;1.52;;
25946;SDS011;13745;51.470;9.894;2022-08-03T08:18:32;2.97;;;1.50;;
25946;SDS011;13745;51.470;9.894;2022-08-03T08:21:18;2.55;;;1.50;;
25946;SDS011;13745;51.470;9.894;2022-08-03T08:24:04;3.42;;;1.20;;
25946;SDS011;13745;51.470;9.894;2022-08-03T08:26:50;2.45;;;1.00;;
25946;SDS011;13745;51.470;9.894;2022-08-03T08:29:37;2.22;;;1.30;;
25946;SDS011;13745;51.470;9.894;2022-08-03T08:32:23;3.60;;;1.38;;
25946;SDS011;13745;51.470;9.894;2022-08-03T08:35:09;2.47;;;1.75;;
25946;SDS011;13745;51.470;9.894;2022-08-03T08:37:56;1.42;;;1.23;;
25946;SDS011;13745;51.470;9.894;2022-08-03T08:40:44;4.22;;;1.15;;
25946;SDS011;13745;51.470;9.894;2022-08-03T08:43:30;2.50;;;1.17;;
25946;SDS011;13745;51.470;9.894;2022-08-03T08:46:17;2.10;;;1.38;;
25946;SDS011;13745;51.470;9.894;2022-08-03T08:49:04;1.98;;;1.30;;
25946;SDS011;13745;51.470;9.894;2022-08-03T08:51:53;2.60;;;1.30;;
25946;SDS011;13745;51.470;9.894;2022-08-03T08:54:41;1.10;;;1.00;;
25946;SDS011;13745;51.470;9.894;2022-08-03T08:57:31;2.65;;;1.35;;
25946;SDS011;13745;51.470;9.894;2022-08-03T09:00:18;1.63;;;1.48;;
25946;SDS011;13745;51.470;9.894;2022-08-03T09:03:06;1.30;;;1.20;;
25946;SDS011;13745;51.470;9.894;2022-08-03T09:05:52;3.83;;;1.00;;
25946;SDS011;13745;51.470;9.894;2022-08-03T09:08:38;1.95;;;1.42;;
25946;SDS011;13745;51.470;9.894;2022-08-03T09:11:24;1.58;;;1.48;;
25946;SDS011;13745;51.470;9.894;2022-08-03T09:14:10;1.85;;;1.13;;
25946;SDS011;13745;51.470;9.894;2022-08-03T09:16:56;2.97;;;1.10;;
25946;SDS011;13745;51.470;9.894;2022-08-03T09:20:02;5.22;;;1.52;;
25946;SDS011;13745;51.470;9.894;2022-08-03T09:22:50;2.40;;;1.33;;
25946;SDS011;13745;51.470;9.894;2022-08-03T09:25:38;3.10;;;1.20;;
25946;SDS011;13745;51.470;9.894;2022-08-03T09:28:32;2.25;;;1.55;;
25946;SDS011;13745;51.470;9.894;2022-08-03T09:31:19;3.30;;;1.35;;
25946;SDS011;13745;51.470;9.894;2022-08-03T09:34:15;3.05;;;1.40;;
25946;SDS011;13745;51.470;9.894;2022-08-03T09:37:04;1.30;;;1.20;;
25946;SDS011;13745;51.470;9.894;2022-08-03T09:39:59;2.20;;;1.27;;
25946;SDS011;13745;51.470;9.894;2022-08-03T09:42:54;1.20;;;1.10;;
25946;SDS011;13745;51.470;9.894;2022-08-03T09:45:41;2.40;;;1.30;;
25946;SDS011;13745;51.470;9.894;2022-08-03T09:48:29;8.48;;;1.63;;
25946;SDS011;13745;51.470;9.894;2022-08-03T09:51:19;2.60;;;1.60;;
25946;SDS011;13745;51.470;9.894;2022-08-03T09:54:10;1.38;;;1.27;;
25946;SDS011;13745;51.470;9.894;2022-08-03T09:56:56;2.63;;;1.60;;
25946;SDS011;13745;51.470;9.894;2022-08-03T09:59:42;1.98;;;1.33;;
25946;SDS011;13745;51.470;9.894;2022-08-03T10:02:28;1.17;;;1.15;;
25946;SDS011;13745;51.470;9.894;2022-08-03T10:05:14;3.30;;;1.30;;
25946;SDS011;13745;51.470;9.894;2022-08-03T10:08:09;3.65;;;1.50;;
25946;SDS011;13745;51.470;9.894;2022-08-03T10:11:00;3.50;;;1.25;;
25946;SDS011;13745;51.470;9.894;2022-08-03T10:13:46;2.33;;;1.35;;
25946;SDS011;13745;51.470;9.894;2022-08-03T10:16:33;2.45;;;1.35;;
25946;SDS011;13745;51.470;9.894;2022-08-03T10:19:19;2.80;;;1.20;;
25946;SDS011;13745;51.470;9.894;2022-08-03T10:22:06;1.52;;;1.20;;
25946;SDS011;13745;51.470;9.894;2022-08-03T10:24:58;1.90;;;1.10;;
25946;SDS011;13745;51.470;9.894;2022-08-03T10:27:46;1.67;;;1.30;;
25946;SDS011;13745;51.470;9.894;2022-08-03T10:30:35;1.50;;;1.35;;
25946;SDS011;13745;51.470;9.894;2022-08-03T10:33:26;2.08;;;1.25;;
25946;SDS011;13745;51.470;9.894;2022-08-03T10:36:12;3.42;;;1.52;;
25946;SDS011;13745;51.470;9.894;2022-08-03T10:39:00;5.63;;;1.40;;
25946;SDS011;13745;51.470;9.894;2022-08-03T10:41:48;1.60;;;1.50;;
25946;SDS011;13745;51.470;9.894;2022-08-03T10:44:38;1.38;;;1.27;;
25946;SDS011;13745;51.470;9.894;2022-08-03T10:47:25;4.47;;;1.50;;
25946;SDS011;13745;51.470;9.894;2022-08-03T10:50:12;3.13;;;1.25;;
25946;SDS011;13745;51.470;9.894;2022-08-03T10:52:59;4.97;;;1.30;;
25946;SDS011;13745;51.470;9.894;2022-08-03T10:55:46;4.13;;;1.08;;
25946;SDS011;13745;51.470;9.894;2022-08-03T10:58:50;2.65;;;1.08;;
25946;SDS011;13745;51.470;9.894;2022-08-03T11:01:51;4.93;;;1.10;;
25946;SDS011;13745;51.470;9.894;2022-08-03T11:04:38;1.02;;;1.02;;
25946;SDS011;13745;51.470;9.894;2022-08-03T11:07:24;2.80;;;1.40;;
25946;SDS011;13745;51.470;9.894;2022-08-03T11:10:15;2.85;;;1.40;;
25946;SDS011;13745;51.470;9.894;2022-08-03T11:13:15;3.10;;;1.20;;
25946;SDS011;13745;51.470;9.894;2022-08-03T11:16:03;1.60;;;1.10;;
25946;SDS011;13745;51.470;9.894;2022-08-03T11:19:05;1.70;;;1.10;;
25946;SDS011;13745;51.470;9.894;2022-08-03T11:21:52;2.10;;;1.08;;
25946;SDS011;13745;51.470;9.894;2022-08-03T11:34:29;1.63;;;1.08;;
25946;SDS011;13745;51.470;9.894;2022-08-03T11:37:22;2.97;;;1.40;;
25946;SDS011;13745;51.470;9.894;2022-08-03T11:40:09;1.60;;;1.27;;
25946;SDS011;13745;51.470;9.894;2022-08-03T11:46:29;5.78;;;1.17;;
25946;SDS011;13745;51.470;9.894;2022-08-03T11:49:22;2.05;;;1.05;;
25946;SDS011;13745;51.470;9.894;2022-08-03T11:52:10;1.67;;;1.30;;
25946;SDS011;13745;51.470;9.894;2022-08-03T11:54:56;2.60;;;1.30;;
25946;SDS011;13745;51.470;9.894;2022-08-03T11:57:42;3.80;;;1.17;;
25946;SDS011;13745;51.470;9.894;2022-08-03T12:00:30;4.35;;;1.40;;
25946;SDS011;13745;51.470;9.894;2022-08-03T12:03:17;1.60;;;1.40;;
25946;SDS011;13745;51.470;9.894;2022-08-03T12:06:07;3.03;;;1.30;;
25946;SDS011;13745;51.470;9.894;2022-08-03T12:08:55;1.98;;;1.35;;
25946;SDS011;13745;51.470;9.894;2022-08-03T12:11:41;4.22;;;1.63;;
25946;SDS011;13745;51.470;9.894;2022-08-03T12:14:27;0.85;;;0.85;;
25946;SDS011;13745;51.470;9.894;2022-08-03T12:17:13;4.10;;;1.42;;
25946;SDS011;13745;51.470;9.894;2022-08-03T12:19:59;1.38;;;1.10;;
25946;SDS011;13745;51.470;9.894;2022-08-03T12:22:45;3.83;;;1.33;;
25946;SDS011;13745;51.470;9.894;2022-08-03T12:25:33;2.05;;;1.35;;
25946;SDS011;13745;51.470;9.894;2022-08-03T12:28:20;1.27;;;1.17;;
25946;SDS011;13745;51.470;9.894;2022-08-03T12:31:07;4.43;;;1.50;;
25946;SDS011;13745;51.470;9.894;2022-08-03T12:33:54;1.35;;;1.00;;
25946;SDS011;13745;51.470;9.894;2022-08-03T12:36:48;2.10;;;1.23;;
25946;SDS011;13745;51.470;9.894;2022-08-03T12:39:35;1.23;;;1.10;;
25946;SDS011;13745;51.470;9.894;2022-08-03T12:42:23;1.88;;;1.00;;
25946;SDS011;13745;51.470;9.894;2022-08-03T12:45:18;4.72;;;1.30;;
25946;SDS011;13745;51.470;9.894;2022-08-03T12:48:08;3.50;;;1.40;;
25946;SDS011;13745;51.470;9.894;2022-08-03T12:51:06;1.17;;;1.08;;
25946;SDS011;13745;51.470;9.894;2022-08-03T12:53:53;1.88;;;1.00;;
25946;SDS011;13745;51.470;9.894;2022-08-03T12:59:44;4.15;;;1.20;;
25946;SDS011;13745;51.470;9.894;2022-08-03T13:02:31;1.35;;;0.95;;
25946;SDS011;13745;51.470;9.894;2022-08-03T13:05:17;2.60;;;1.25;;
25946;SDS011;13745;51.470;9.894;2022-08-03T13:08:03;2.92;;;1.30;;
25946;SDS011;13745;51.470;9.894;2022-08-03T13:10:49;1.13;;;1.00;;
25946;SDS011;13745;51.470;9.894;2022-08-03T13:13:38;2.67;;;1.25;;
25946;SDS011;13745;51.470;9.894;2022-08-03T13:16:26;1.20;;;1.10;;
25946;SDS011;13745;51.470;9.894;2022-08-03T13:19:12;1.30;;;1.20;;
25946;SDS011;13745;51.470;9.894;2022-08-03T13:21:58;1.25;;;1.17;;
25946;SDS011;13745;51.470;9.894;2022-08-03T13:24:46;2.97;;;1.10;;
25946;SDS011;13745;51.470;9.894;2022-08-03T13:27:34;1.23;;;1.00;;
25946;SDS011;13745;51.470;9.894;2022-08-03T13:30:19;1.95;;;1.40;;
25946;SDS011;13745;51.470;9.894;2022-08-03T13:33:07;1.63;;;1.20;;
25946;SDS011;13745;51.470;9.894;2022-08-03T13:35:52;3.45;;;1.25;;
25946;SDS011;13745;51.470;9.894;2022-08-03T13:38:38;5.18;;;1.20;;
25946;SDS011;13745;51.470;9.894;2022-08-03T13:41:24;3.45;;;1.15;;
25946;SDS011;13745;51.470;9.894;2022-08-03T13:44:10;2.08;;;1.10;;
25946;SDS011;13745;51.470;9.894;2022-08-03T13:46:56;6.18;;;1.23;;
25946;SDS011;13745;51.470;9.894;2022-08-03T13:49:45;1.30;;;1.08;;
25946;SDS011;13745;51.470;9.894;2022-08-03T13:52:32;1.95;;;0.93;;
25946;SDS011;13745;51.470;9.894;2022-08-03T13:55:19;1.20;;;1.10;;
25946;SDS011;13745;51.470;9.894;2022-08-03T13:58:05;2.70;;;1.17;;
25946;SDS011;13745;51.470;9.894;2022-08-03T14:00:51;1.73;;;1.20;;
25946;SDS011;13745;51.470;9.894;2022-08-03T14:03:37;1.15;;;1.02;;
25946;SDS011;13745;51.470;9.894;2022-08-03T14:06:24;1.10;;;0.93;;
25946;SDS011;13745;51.470;9.894;2022-08-03T14:09:10;1.98;;;1.20;;
25946;SDS011;13745;51.470;9.894;2022-08-03T14:11:56;4.90;;;0.90;;
25946;SDS011;13745;51.470;9.894;2022-08-03T14:14:42;0.88;;;0.88;;
25946;SDS011;13745;51.470;9.894;2022-08-03T14:17:28;1.10;;;0.90;;
25946;SDS011;13745;51.470;9.894;2022-08-03T14:20:14;2.50;;;0.98;;
25946;SDS011;13745;51.470;9.894;2022-08-03T14:23:01;1.73;;;0.90;;
25946;SDS011;13745;51.470;9.894;2022-08-03T14:25:46;2.13;;;1.00;;
25946;SDS011;13745;51.470;9.894;2022-08-03T14:28:32;2.20;;;0.85;;
25946;SDS011;13745;51.470;9.894;2022-08-03T14:31:18;1.70;;;1.15;;
25946;SDS011;13745;51.470;9.894;2022-08-03T14:34:04;2.67;;;1.00;;
25946;SDS011;13745;51.470;9.894;2022-08-03T14:36:50;4.82;;;1.20;;
25946;SDS011;13745;51.470;9.894;2022-08-03T14:39:37;1.50;;;0.90;;
25946;SDS011;13745;51.470;9.894;2022-08-03T14:42:23;1.27;;;1.10;;
25946;SDS011;13745;51.470;9.894;2022-08-03T14:45:09;1.40;;;1.10;;
25946;SDS011;13745;51.470;9.894;2022-08-03T14:47:56;0.95;;;0.90;;
25946;SDS011;13745;51.470;9.894;2022-08-03T14:50:43;1.45;;;0.93;;
25946;SDS011;13745;51.470;9.894;2022-08-03T14:53:29;3.90;;;1.10;;
25946;SDS011;13745;51.470;9.894;2022-08-03T14:56:16;0.88;;;0.80;;
25946;SDS011;13745;51.470;9.894;2022-08-03T14:59:02;2.60;;;1.27;;
25946;SDS011;13745;51.470;9.894;2022-08-03T15:01:48;0.85;;;0.73;;
25946;SDS011;13745;51.470;9.894;2022-08-03T15:04:34;5.00;;;1.10;;
25946;SDS011;13745;51.470;9.894;2022-08-03T15:07:20;3.00;;;1.05;;
25946;SDS011;13745;51.470;9.894;2022-08-03T15:10:06;3.85;;;0.88;;
25946;SDS011;13745;51.470;9.894;2022-08-03T15:12:54;3.97;;;1.00;;
25946;SDS011;13745;51.470;9.894;2022-08-03T15:15:40;4.32;;;1.20;;
25946;SDS011;13745;51.470;9.894;2022-08-03T15:18:26;1.08;;;1.02;;
25946;SDS011;13745;51.470;9.894;2022-08-03T15:21:12;1.20;;;1.10;;
25946;SDS011;13745;51.470;9.894;2022-08-03T15:23:58;2.88;;;0.98;;
25946;SDS011;13745;51.470;9.894;2022-08-03T15:26:43;2.05;;;1.08;;
25946;SDS011;13745;51.470;9.894;2022-08-03T15:29:31;1.08;;;0.93;;
25946;SDS011;13745;51.470;9.894;2022-08-03T15:32:16;1.00;;;1.00;;
25946;SDS011;13745;51.470;9.894;2022-08-03T15:35:02;1.70;;;1.13;;
25946;SDS011;13745;51.470;9.894;2022-08-03T15:37:49;1.45;;;1.17;;
25946;SDS011;13745;51.470;9.894;2022-08-03T15:40:35;4.95;;;1.20;;
25946;SDS011;13745;51.470;9.894;2022-08-03T15:43:20;0.80;;;0.80;;
25946;SDS011;13745;51.470;9.894;2022-08-03T15:46:08;2.28;;;1.02;;
25946;SDS011;13745;51.470;9.894;2022-08-03T15:48:54;2.70;;;1.10;;
25946;SDS011;13745;51.470;9.894;2022-08-03T15:51:40;0.85;;;0.80;;
25946;SDS011;13745;51.470;9.894;2022-08-03T15:54:26;0.88;;;0.88;;
25946;SDS011;13745;51.470;9.894;2022-08-03T15:57:11;1.17;;;0.90;;
25946;SDS011;13745;51.470;9.894;2022-08-03T15:59:57;1.90;;;1.15;;
25946;SDS011;13745;51.470;9.894;2022-08-03T16:02:45;2.47;;;1.05;;
25946;SDS011;13745;51.470;9.894;2022-08-03T16:05:31;5.20;;;0.80;;
25946;SDS011;13745;51.470;9.894;2022-08-03T16:08:17;2.78;;;1.30;;
25946;SDS011;13745;51.470;9.894;2022-08-03T16:11:02;2.88;;;1.10;;
25946;SDS011;13745;51.470;9.894;2022-08-03T16:13:48;1.10;;;1.00;;
25946;SDS011;13745;51.470;9.894;2022-08-03T16:16:34;2.03;;;1.00;;
25946;SDS011;13745;51.470;9.894;2022-08-03T16:19:24;1.75;;;1.10;;
25946;SDS011;13745;51.470;9.894;2022-08-03T16:22:10;2.65;;;0.93;;
25946;SDS011;13745;51.470;9.894;2022-08-03T16:24:56;0.80;;;0.80;;
25946;SDS011;13745;51.470;9.894;2022-08-03T16:27:43;2.05;;;0.90;;
25946;SDS011;13745;51.470;9.894;2022-08-03T16:30:29;1.95;;;1.00;;
25946;SDS011;13745;51.470;9.894;2022-08-03T16:33:15;1.52;;;0.90;;
25946;SDS011;13745;51.470;9.894;2022-08-03T16:36:02;1.70;;;1.27;;
25946;SDS011;13745;51.470;9.894;2022-08-03T16:38:48;0.80;;;0.80;;
25946;SDS011;13745;51.470;9.894;2022-08-03T16:41:34;5.60;;;1.02;;
25946;SDS011;13745;51.470;9.894;2022-08-03T16:44:20;1.00;;;0.90;;
25946;SDS011;13745;51.470;9.894;2022-08-03T16:47:05;3.72;;;1.35;;
25946;SDS011;13745;51.470;9.894;2022-08-03T16:49:51;1.63;;;1.08;;
25946;SDS011;13745;51.470;9.894;2022-08-03T16:52:39;3.78;;;0.98;;
25946;SDS011;13745;51.470;9.894;2022-08-03T16:55:25;4.32;;;0.95;;
25946;SDS011;13745;51.470;9.894;2022-08-03T16:58:10;2.38;;;1.38;;
25946;SDS011;13745;51.470;9.894;2022-08-03T17:00:58;2.42;;;0.95;;
25946;SDS011;13745;51.470;9.894;2022-08-03T17:03:44;2.40;;;1.08;;
25946;SDS011;13745;51.470;9.894;2022-08-03T17:06:30;1.33;;;1.20;;